sensor_id;sensor_type;location;lat;lon;timestamp;temperature;humidity
20463;DHT22;10390;53.566;9.980;2023-04-12T00:01:02;24.30;1.00
20463;DHT22;10390;53.566;9.980;2023-04-12T00:03:28;24.30;1.00
20463;DHT22;10390;53.566;9.980;2023-04-12T00:05:55;24.30;1.00
20463;DHT22;10390;53.566;9.980;2023-04-12T00:08:22;24.30;1.00
20463;DHT22;10390;53.566;9.980;2023-04-12T00:10:51;24.40;1.00
20463;DHT22;10390;53.566;9.980;2023-04-12T00:13:17;24.40;1.00
20463;DHT22;10390;53.566;9.980;2023-04-12T00:15:44;24.40;1.00
20463;DHT22;10390;53.566;9.980;2023-04-12T00:18:10;24.50;1.00
20463;DHT22;10390;53.566;9.980;2023-04-12T00:20:35;24.50;1.00
20463;DHT22;10390;53.566;9.980;2023-04-12T00:23:01;24.50;1.00
20463;DHT22;10390;53.566;9.980;2023-04-12T00:25:26;24.50;1.00
20463;DHT22;10390;53.566;9.980;2023-04-12T00:27:52;24.50;1.00
20463;DHT22;10390;53.566;9.980;2023-04-12T00:30:18;24.50;1.00
20463;DHT22;10390;53.566;9.980;2023-04-12T00:32:43;24.40;1.00
20463;DHT22;10390;53.566;9.980;2023-04-12T00:35:09;24.40;1.00
20463;DHT22;10390;53.566;9.980;2023-04-12T00:37:34;24.40;1.00
20463;DHT22;10390;53.566;9.980;2023-04-12T00:40:04;24.40;1.00
20463;DHT22;10390;53.566;9.980;2023-04-12T00:42:32;24.40;1.00
20463;DHT22;10390;53.566;9.980;2023-04-12T00:44:58;24.30;1.00
20463;DHT22;10390;53.566;9.980;2023-04-12T00:47:25;24.40;1.00
20463;DHT22;10390;53.566;9.980;2023-04-12T00:49:50;24.30;1.00
20463;DHT22;10390;53.566;9.980;2023-04-12T00:52:16;24.40;1.00
20463;DHT22;10390;53.566;9.980;2023-04-12T00:54:42;24.30;1.00
20463;DHT22;10390;53.566;9.980;2023-04-12T00:57:09;24.30;1.00
20463;DHT22;10390;53.566;9.980;2023-04-12T00:59:34;24.30;1.00
20463;DHT22;10390;53.566;9.980;2023-04-12T01:02:00;24.30;1.00
20463;DHT22;10390;53.566;9.980;2023-04-12T01:04:26;24.30;1.00
20463;DHT22;10390;53.566;9.980;2023-04-12T01:07:13;24.30;1.00
20463;DHT22;10390;53.566;9.980;2023-04-12T01:10:10;24.30;1.00
20463;DHT22;10390;53.566;9.980;2023-04-12T01:15:13;24.20;1.00
20463;DHT22;10390;53.566;9.980;2023-04-12T01:17:55;24.20;1.00
20463;DHT22;10390;53.566;9.980;2023-04-12T01:20:28;24.20;1.00
20463;DHT22;10390;53.566;9.980;2023-04-12T01:28:32;24.20;1.00
20463;DHT22;10390;53.566;9.980;2023-04-12T01:31:01;24.20;1.00
20463;DHT22;10390;53.566;9.980;2023-04-12T01:33:28;24.30;1.00
20463;DHT22;10390;53.566;9.980;2023-04-12T01:35:59;24.30;1.00
20463;DHT22;10390;53.566;9.980;2023-04-12T01:38:26;24.30;1.00
20463;DHT22;10390;53.566;9.980;2023-04-12T01:40:53;24.30;1.00
20463;DHT22;10390;53.566;9.980;2023-04-12T01:43:19;24.30;1.00
20463;DHT22;10390;53.566;9.980;2023-04-12T01:45:44;24.40;1.00
20463;DHT22;10390;53.566;9.980;2023-04-12T01:48:11;24.40;1.00
20463;DHT22;10390;53.566;9.980;2023-04-12T01:56:08;24.30;1.00
20463;DHT22;10390;53.566;9.980;2023-04-12T01:58:35;24.30;1.00
20463;DHT22;10390;53.566;9.980;2023-04-12T02:01:02;24.30;1.00
20463;DHT22;10390;53.566;9.980;2023-04-12T02:03:29;24.20;1.00
20463;DHT22;10390;53.566;9.980;2023-04-12T02:05:57;24.30;1.00
20463;DHT22;10390;53.566;9.980;2023-04-12T02:08:24;24.20;1.00
20463;DHT22;10390;53.566;9.980;2023-04-12T02:10:49;24.20;1.00
20463;DHT22;10390;53.566;9.980;2023-04-12T02:13:15;24.20;1.00
20463;DHT22;10390;53.566;9.980;2023-04-12T02:15:44;24.20;1.00
20463;DHT22;10390;53.566;9.980;2023-04-12T02:18:10;24.20;1.00
20463;DHT22;10390;53.566;9.980;2023-04-12T02:20:38;24.20;1.00
20463;DHT22;10390;53.566;9.980;2023-04-12T02:23:03;24.20;1.00
20463;DHT22;10390;53.566;9.980;2023-04-12T02:25:29;24.20;1.00
20463;DHT22;10390;53.566;9.980;2023-04-12T02:27:55;24.20;1.00
20463;DHT22;10390;53.566;9.980;2023-04-12T02:30:21;24.20;1.00
20463;DHT22;10390;53.566;9.980;2023-04-12T02:32:47;24.20;1.00
20463;DHT22;10390;53.566;9.980;2023-04-12T02:35:14;24.20;1.00
20463;DHT22;10390;53.566;9.980;2023-04-12T02:37:44;24.20;1.00
20463;DHT22;10390;53.566;9.980;2023-04-12T02:40:13;24.10;1.00
20463;DHT22;10390;53.566;9.980;2023-04-12T02:42:42;24.00;1.00
20463;DHT22;10390;53.566;9.980;2023-04-12T02:45:09;24.00;1.00
20463;DHT22;10390;53.566;9.980;2023-04-12T02:47:35;24.00;1.00
20463;DHT22;10390;53.566;9.980;2023-04-12T02:50:02;24.10;1.00
20463;DHT22;10390;53.566;9.980;2023-04-12T02:52:28;24.10;1.00
20463;DHT22;10390;53.566;9.980;2023-04-12T02:54:55;24.20;1.00
20463;DHT22;10390;53.566;9.980;2023-04-12T02:57:21;24.20;1.00
20463;DHT22;10390;53.566;9.980;2023-04-12T02:59:49;24.20;1.00
20463;DHT22;10390;53.566;9.980;2023-04-12T03:02:17;24.20;1.00
20463;DHT22;10390;53.566;9.980;2023-04-12T03:04:43;24.20;1.00
20463;DHT22;10390;53.566;9.980;2023-04-12T03:07:15;24.20;1.00
20463;DHT22;10390;53.566;9.980;2023-04-12T03:09:40;24.30;1.00
20463;DHT22;10390;53.566;9.980;2023-04-12T03:12:07;24.20;1.00
20463;DHT22;10390;53.566;9.980;2023-04-12T03:14:33;24.20;1.00
20463;DHT22;10390;53.566;9.980;2023-04-12T03:16:58;24.20;1.00
20463;DHT22;10390;53.566;9.980;2023-04-12T03:19:24;24.20;1.00
20463;DHT22;10390;53.566;9.980;2023-04-12T03:21:49;24.20;1.00
20463;DHT22;10390;53.566;9.980;2023-04-12T03:24:15;24.20;1.00
20463;DHT22;10390;53.566;9.980;2023-04-12T03:26:41;24.10;1.00
20463;DHT22;10390;53.566;9.980;2023-04-12T03:29:08;24.20;1.00
20463;DHT22;10390;53.566;9.980;2023-04-12T03:31:34;24.10;1.00
20463;DHT22;10390;53.566;9.980;2023-04-12T03:34:00;24.10;1.00
20463;DHT22;10390;53.566;9.980;2023-04-12T03:36:26;24.10;1.00
20463;DHT22;10390;53.566;9.980;2023-04-12T03:38:52;24.10;1.00
20463;DHT22;10390;53.566;9.980;2023-04-12T03:41:20;24.10;1.00
20463;DHT22;10390;53.566;9.980;2023-04-12T03:43:46;24.10;1.00
20463;DHT22;10390;53.566;9.980;2023-04-12T03:46:11;24.10;1.00
20463;DHT22;10390;53.566;9.980;2023-04-12T03:48:40;24.10;1.00
20463;DHT22;10390;53.566;9.980;2023-04-12T03:51:06;24.10;1.00
20463;DHT22;10390;53.566;9.980;2023-04-12T03:53:36;24.10;1.00
20463;DHT22;10390;53.566;9.980;2023-04-12T03:56:02;24.10;1.00
20463;DHT22;10390;53.566;9.980;2023-04-12T03:58:27;24.00;1.00
20463;DHT22;10390;53.566;9.980;2023-04-12T04:00:53;24.00;1.00
20463;DHT22;10390;53.566;9.980;2023-04-12T04:03:19;24.00;1.00
20463;DHT22;10390;53.566;9.980;2023-04-12T04:05:47;23.90;1.00
20463;DHT22;10390;53.566;9.980;2023-04-12T04:08:12;24.00;1.00
20463;DHT22;10390;53.566;9.980;2023-04-12T04:10:38;24.00;1.00
20463;DHT22;10390;53.566;9.980;2023-04-12T04:13:04;24.10;1.00
20463;DHT22;10390;53.566;9.980;2023-04-12T04:15:29;24.10;1.00
20463;DHT22;10390;53.566;9.980;2023-04-12T04:17:55;24.20;1.00
20463;DHT22;10390;53.566;9.980;2023-04-12T04:20:20;24.20;1.00
20463;DHT22;10390;53.566;9.980;2023-04-12T04:22:46;24.20;1.00
20463;DHT22;10390;53.566;9.980;2023-04-12T04:25:13;24.20;1.00
20463;DHT22;10390;53.566;9.980;2023-04-12T04:27:40;24.20;1.00
20463;DHT22;10390;53.566;9.980;2023-04-12T04:30:06;24.20;1.00
20463;DHT22;10390;53.566;9.980;2023-04-12T04:32:32;24.20;1.00
20463;DHT22;10390;53.566;9.980;2023-04-12T04:34:59;24.20;1.00
20463;DHT22;10390;53.566;9.980;2023-04-12T04:37:26;24.20;1.00
20463;DHT22;10390;53.566;9.980;2023-04-12T04:39:52;24.10;1.00
20463;DHT22;10390;53.566;9.980;2023-04-12T04:42:18;24.10;1.00
20463;DHT22;10390;53.566;9.980;2023-04-12T04:44:43;24.10;1.00
20463;DHT22;10390;53.566;9.980;2023-04-12T04:47:09;24.00;1.00
20463;DHT22;10390;53.566;9.980;2023-04-12T04:49:36;24.10;1.00
20463;DHT22;10390;53.566;9.980;2023-04-12T04:52:02;24.00;1.00
20463;DHT22;10390;53.566;9.980;2023-04-12T04:54:29;24.00;1.00
20463;DHT22;10390;53.566;9.980;2023-04-12T04:56:55;24.00;1.00
20463;DHT22;10390;53.566;9.980;2023-04-12T04:59:21;24.00;1.00
20463;DHT22;10390;53.566;9.980;2023-04-12T05:01:48;24.00;1.00
20463;DHT22;10390;53.566;9.980;2023-04-12T05:04:14;24.00;1.00
20463;DHT22;10390;53.566;9.980;2023-04-12T05:06:39;24.00;1.00
20463;DHT22;10390;53.566;9.980;2023-04-12T05:09:05;24.00;1.00
20463;DHT22;10390;53.566;9.980;2023-04-12T05:11:31;24.00;1.00
20463;DHT22;10390;53.566;9.980;2023-04-12T05:13:57;24.00;1.00
20463;DHT22;10390;53.566;9.980;2023-04-12T05:16:22;24.00;1.00
20463;DHT22;10390;53.566;9.980;2023-04-12T05:18:48;23.90;1.00
20463;DHT22;10390;53.566;9.980;2023-04-12T05:21:13;23.90;1.00
20463;DHT22;10390;53.566;9.980;2023-04-12T05:23:44;23.90;1.00
20463;DHT22;10390;53.566;9.980;2023-04-12T05:26:10;23.90;1.00
20463;DHT22;10390;53.566;9.980;2023-04-12T05:28:36;23.80;1.00
20463;DHT22;10390;53.566;9.980;2023-04-12T05:31:01;23.80;1.00
20463;DHT22;10390;53.566;9.980;2023-04-12T05:33:27;23.80;1.00
20463;DHT22;10390;53.566;9.980;2023-04-12T05:35:52;23.90;1.00
20463;DHT22;10390;53.566;9.980;2023-04-12T05:38:18;24.00;1.00
20463;DHT22;10390;53.566;9.980;2023-04-12T05:40:44;24.00;1.00
20463;DHT22;10390;53.566;9.980;2023-04-12T05:43:09;24.00;1.00
20463;DHT22;10390;53.566;9.980;2023-04-12T05:45:38;24.00;1.00
20463;DHT22;10390;53.566;9.980;2023-04-12T05:48:04;24.00;1.00
20463;DHT22;10390;53.566;9.980;2023-04-12T05:50:30;24.10;1.00
20463;DHT22;10390;53.566;9.980;2023-04-12T05:52:56;24.10;1.00
20463;DHT22;10390;53.566;9.980;2023-04-12T05:55:21;24.10;1.00
20463;DHT22;10390;53.566;9.980;2023-04-12T05:57:47;24.00;1.00
20463;DHT22;10390;53.566;9.980;2023-04-12T06:00:13;24.10;1.00
20463;DHT22;10390;53.566;9.980;2023-04-12T06:02:45;24.10;1.00
20463;DHT22;10390;53.566;9.980;2023-04-12T06:05:11;24.10;1.00
20463;DHT22;10390;53.566;9.980;2023-04-12T06:07:40;24.10;1.00
20463;DHT22;10390;53.566;9.980;2023-04-12T06:10:13;24.20;1.00
20463;DHT22;10390;53.566;9.980;2023-04-12T06:12:40;24.20;1.00
20463;DHT22;10390;53.566;9.980;2023-04-12T06:15:06;24.20;1.00
20463;DHT22;10390;53.566;9.980;2023-04-12T06:17:32;24.30;1.00
20463;DHT22;10390;53.566;9.980;2023-04-12T06:19:57;24.30;1.00
20463;DHT22;10390;53.566;9.980;2023-04-12T06:22:23;24.30;1.00
20463;DHT22;10390;53.566;9.980;2023-04-12T06:24:49;24.30;1.00
20463;DHT22;10390;53.566;9.980;2023-04-12T06:27:15;24.40;1.00
20463;DHT22;10390;53.566;9.980;2023-04-12T06:29:40;24.40;1.00
20463;DHT22;10390;53.566;9.980;2023-04-12T06:32:06;24.40;1.00
20463;DHT22;10390;53.566;9.980;2023-04-12T06:34:32;24.50;1.00
20463;DHT22;10390;53.566;9.980;2023-04-12T06:36:57;24.50;1.00
20463;DHT22;10390;53.566;9.980;2023-04-12T06:39:24;24.50;1.00
20463;DHT22;10390;53.566;9.980;2023-04-12T06:41:49;24.50;1.00
20463;DHT22;10390;53.566;9.980;2023-04-12T06:44:15;24.50;1.00
20463;DHT22;10390;53.566;9.980;2023-04-12T06:46:41;24.50;1.00
20463;DHT22;10390;53.566;9.980;2023-04-12T06:49:07;24.50;1.00
20463;DHT22;10390;53.566;9.980;2023-04-12T06:51:32;24.60;1.00
20463;DHT22;10390;53.566;9.980;2023-04-12T06:54:00;24.50;1.00
20463;DHT22;10390;53.566;9.980;2023-04-12T06:56:26;24.60;1.00
20463;DHT22;10390;53.566;9.980;2023-04-12T06:58:51;24.60;1.00
20463;DHT22;10390;53.566;9.980;2023-04-12T07:01:17;24.70;1.00
20463;DHT22;10390;53.566;9.980;2023-04-12T07:03:43;24.60;1.00
20463;DHT22;10390;53.566;9.980;2023-04-12T07:06:08;24.70;1.00
20463;DHT22;10390;53.566;9.980;2023-04-12T07:08:35;24.70;1.00
20463;DHT22;10390;53.566;9.980;2023-04-12T07:11:02;24.70;1.00
20463;DHT22;10390;53.566;9.980;2023-04-12T07:13:28;24.70;1.00
20463;DHT22;10390;53.566;9.980;2023-04-12T07:15:53;24.70;1.00
20463;DHT22;10390;53.566;9.980;2023-04-12T07:18:20;24.70;1.00
20463;DHT22;10390;53.566;9.980;2023-04-12T07:20:47;24.70;1.00
20463;DHT22;10390;53.566;9.980;2023-04-12T07:23:15;24.70;1.00
20463;DHT22;10390;53.566;9.980;2023-04-12T07:25:40;24.70;1.00
20463;DHT22;10390;53.566;9.980;2023-04-12T07:28:06;24.70;1.00
20463;DHT22;10390;53.566;9.980;2023-04-12T07:30:33;24.70;1.00
20463;DHT22;10390;53.566;9.980;2023-04-12T07:32:58;24.70;1.00
20463;DHT22;10390;53.566;9.980;2023-04-12T07:35:30;24.70;1.00
20463;DHT22;10390;53.566;9.980;2023-04-12T07:37:56;24.60;1.00
20463;DHT22;10390;53.566;9.980;2023-04-12T07:40:22;24.50;1.00
20463;DHT22;10390;53.566;9.980;2023-04-12T07:42:48;24.50;1.00
20463;DHT22;10390;53.566;9.980;2023-04-12T07:45:14;24.50;1.00
20463;DHT22;10390;53.566;9.980;2023-04-12T07:47:39;24.40;1.00
20463;DHT22;10390;53.566;9.980;2023-04-12T07:50:06;24.40;1.00
20463;DHT22;10390;53.566;9.980;2023-04-12T07:52:31;24.40;1.00
20463;DHT22;10390;53.566;9.980;2023-04-12T07:54:57;24.30;1.00
20463;DHT22;10390;53.566;9.980;2023-04-12T07:57:23;24.30;1.00
20463;DHT22;10390;53.566;9.980;2023-04-12T07:59:49;24.30;1.00
20463;DHT22;10390;53.566;9.980;2023-04-12T08:02:14;24.30;1.00
20463;DHT22;10390;53.566;9.980;2023-04-12T08:04:54;24.30;1.00
20463;DHT22;10390;53.566;9.980;2023-04-12T08:07:20;24.30;1.00
20463;DHT22;10390;53.566;9.980;2023-04-12T08:09:51;24.30;1.00
20463;DHT22;10390;53.566;9.980;2023-04-12T08:12:17;24.40;1.00
20463;DHT22;10390;53.566;9.980;2023-04-12T08:14:42;24.40;1.00
20463;DHT22;10390;53.566;9.980;2023-04-12T08:17:09;24.40;1.00
20463;DHT22;10390;53.566;9.980;2023-04-12T08:19:35;24.40;1.00
20463;DHT22;10390;53.566;9.980;2023-04-12T08:22:01;24.40;1.00
20463;DHT22;10390;53.566;9.980;2023-04-12T08:24:27;24.40;1.00
20463;DHT22;10390;53.566;9.980;2023-04-12T08:26:53;24.40;1.00
20463;DHT22;10390;53.566;9.980;2023-04-12T08:29:18;24.40;1.00
20463;DHT22;10390;53.566;9.980;2023-04-12T08:31:45;24.40;1.00
20463;DHT22;10390;53.566;9.980;2023-04-12T08:34:10;24.40;1.00
20463;DHT22;10390;53.566;9.980;2023-04-12T08:36:36;24.40;1.00
20463;DHT22;10390;53.566;9.980;2023-04-12T08:39:02;24.40;1.00
20463;DHT22;10390;53.566;9.980;2023-04-12T08:41:27;24.40;1.00
20463;DHT22;10390;53.566;9.980;2023-04-12T08:43:53;24.40;1.00
20463;DHT22;10390;53.566;9.980;2023-04-12T08:46:22;24.40;1.00
20463;DHT22;10390;53.566;9.980;2023-04-12T08:48:50;24.30;1.00
20463;DHT22;10390;53.566;9.980;2023-04-12T08:51:19;24.30;1.00
20463;DHT22;10390;53.566;9.980;2023-04-12T08:53:45;24.20;1.00
20463;DHT22;10390;53.566;9.980;2023-04-12T08:56:11;24.20;1.00
20463;DHT22;10390;53.566;9.980;2023-04-12T08:58:43;24.10;1.00
20463;DHT22;10390;53.566;9.980;2023-04-12T09:01:11;24.10;1.00
20463;DHT22;10390;53.566;9.980;2023-04-12T09:03:41;24.10;1.00
20463;DHT22;10390;53.566;9.980;2023-04-12T09:06:07;24.10;1.00
20463;DHT22;10390;53.566;9.980;2023-04-12T09:08:33;24.10;1.00
20463;DHT22;10390;53.566;9.980;2023-04-12T09:10:58;24.10;1.00
20463;DHT22;10390;53.566;9.980;2023-04-12T09:13:34;24.10;1.00
20463;DHT22;10390;53.566;9.980;2023-04-12T09:16:01;24.10;1.00
20463;DHT22;10390;53.566;9.980;2023-04-12T09:18:27;24.10;1.00
20463;DHT22;10390;53.566;9.980;2023-04-12T09:21:19;24.10;1.00
20463;DHT22;10390;53.566;9.980;2023-04-12T09:24:01;24.10;1.00
20463;DHT22;10390;53.566;9.980;2023-04-12T09:26:27;24.10;1.00
20463;DHT22;10390;53.566;9.980;2023-04-12T09:28:54;24.10;1.00
20463;DHT22;10390;53.566;9.980;2023-04-12T09:31:19;24.10;1.00
20463;DHT22;10390;53.566;9.980;2023-04-12T09:33:45;24.10;1.00
20463;DHT22;10390;53.566;9.980;2023-04-12T09:36:11;24.10;1.00
20463;DHT22;10390;53.566;9.980;2023-04-12T09:38:58;24.20;1.00
20463;DHT22;10390;53.566;9.980;2023-04-12T09:41:25;24.20;1.00
20463;DHT22;10390;53.566;9.980;2023-04-12T09:43:53;24.20;1.00
20463;DHT22;10390;53.566;9.980;2023-04-12T09:46:18;24.20;1.00
20463;DHT22;10390;53.566;9.980;2023-04-12T09:48:51;24.20;1.00
20463;DHT22;10390;53.566;9.980;2023-04-12T09:51:28;24.20;1.00
20463;DHT22;10390;53.566;9.980;2023-04-12T09:54:01;24.20;1.00
20463;DHT22;10390;53.566;9.980;2023-04-12T09:56:31;24.20;1.00
20463;DHT22;10390;53.566;9.980;2023-04-12T09:59:02;24.20;1.00
20463;DHT22;10390;53.566;9.980;2023-04-12T10:01:37;24.20;1.00
20463;DHT22;10390;53.566;9.980;2023-04-12T10:04:04;24.20;1.00
20463;DHT22;10390;53.566;9.980;2023-04-12T10:06:32;24.20;1.00
20463;DHT22;10390;53.566;9.980;2023-04-12T10:08:59;24.20;1.00
20463;DHT22;10390;53.566;9.980;2023-04-12T10:11:27;24.10;1.00
20463;DHT22;10390;53.566;9.980;2023-04-12T10:13:55;24.10;1.00
20463;DHT22;10390;53.566;9.980;2023-04-12T10:16:21;24.00;1.00
20463;DHT22;10390;53.566;9.980;2023-04-12T10:18:49;24.00;1.00
20463;DHT22;10390;53.566;9.980;2023-04-12T10:21:14;24.00;1.00
20463;DHT22;10390;53.566;9.980;2023-04-12T10:23:43;24.00;1.00
20463;DHT22;10390;53.566;9.980;2023-04-12T10:26:09;24.00;1.00
20463;DHT22;10390;53.566;9.980;2023-04-12T10:28:35;24.00;1.00
20463;DHT22;10390;53.566;9.980;2023-04-12T10:31:30;24.00;1.00
20463;DHT22;10390;53.566;9.980;2023-04-12T10:33:58;24.00;1.00
20463;DHT22;10390;53.566;9.980;2023-04-12T10:39:34;24.00;1.00
20463;DHT22;10390;53.566;9.980;2023-04-12T10:42:27;24.00;1.00
20463;DHT22;10390;53.566;9.980;2023-04-12T10:44:54;24.00;1.00
20463;DHT22;10390;53.566;9.980;2023-04-12T10:50:22;24.00;1.00
20463;DHT22;10390;53.566;9.980;2023-04-12T10:55:43;24.00;1.00
20463;DHT22;10390;53.566;9.980;2023-04-12T10:58:10;24.00;1.00
20463;DHT22;10390;53.566;9.980;2023-04-12T11:03:21;24.00;1.00
20463;DHT22;10390;53.566;9.980;2023-04-12T11:06:03;24.00;1.00
20463;DHT22;10390;53.566;9.980;2023-04-12T11:08:30;24.10;1.00
20463;DHT22;10390;53.566;9.980;2023-04-12T11:11:04;24.10;1.00
20463;DHT22;10390;53.566;9.980;2023-04-12T11:13:42;24.10;1.00
20463;DHT22;10390;53.566;9.980;2023-04-12T11:16:09;24.10;1.00
20463;DHT22;10390;53.566;9.980;2023-04-12T11:18:37;24.10;1.00
20463;DHT22;10390;53.566;9.980;2023-04-12T11:21:04;24.10;1.00
20463;DHT22;10390;53.566;9.980;2023-04-12T11:23:31;24.10;1.00
20463;DHT22;10390;53.566;9.980;2023-04-12T11:25:57;24.10;1.00
20463;DHT22;10390;53.566;9.980;2023-04-12T11:28:23;24.20;1.00
20463;DHT22;10390;53.566;9.980;2023-04-12T11:30:56;24.10;1.00
20463;DHT22;10390;53.566;9.980;2023-04-12T11:33:36;24.10;1.00
20463;DHT22;10390;53.566;9.980;2023-04-12T11:36:03;24.00;1.00
20463;DHT22;10390;53.566;9.980;2023-04-12T11:38:30;24.00;1.00
20463;DHT22;10390;53.566;9.980;2023-04-12T11:40:56;24.00;1.00
20463;DHT22;10390;53.566;9.980;2023-04-12T11:43:21;24.00;1.00
20463;DHT22;10390;53.566;9.980;2023-04-12T11:45:47;24.00;1.00
20463;DHT22;10390;53.566;9.980;2023-04-12T11:48:13;24.00;1.00
20463;DHT22;10390;53.566;9.980;2023-04-12T11:50:38;24.00;1.00
20463;DHT22;10390;53.566;9.980;2023-04-12T11:53:11;24.10;1.00
20463;DHT22;10390;53.566;9.980;2023-04-12T11:55:37;24.10;1.00
20463;DHT22;10390;53.566;9.980;2023-04-12T11:58:03;24.10;1.00
20463;DHT22;10390;53.566;9.980;2023-04-12T12:00:28;24.20;1.00
20463;DHT22;10390;53.566;9.980;2023-04-12T12:02:56;24.10;1.00
20463;DHT22;10390;53.566;9.980;2023-04-12T12:05:22;24.20;1.00
20463;DHT22;10390;53.566;9.980;2023-04-12T12:07:48;24.10;1.00
20463;DHT22;10390;53.566;9.980;2023-04-12T12:10:14;24.20;1.00
20463;DHT22;10390;53.566;9.980;2023-04-12T12:12:44;24.20;1.00
20463;DHT22;10390;53.566;9.980;2023-04-12T12:15:10;24.20;1.00
20463;DHT22;10390;53.566;9.980;2023-04-12T12:17:38;24.20;1.00
20463;DHT22;10390;53.566;9.980;2023-04-12T12:20:04;24.20;1.00
20463;DHT22;10390;53.566;9.980;2023-04-12T12:22:31;24.20;1.00
20463;DHT22;10390;53.566;9.980;2023-04-12T12:25:00;24.20;1.00
20463;DHT22;10390;53.566;9.980;2023-04-12T12:27:39;24.20;1.00
20463;DHT22;10390;53.566;9.980;2023-04-12T12:30:08;24.20;1.00
20463;DHT22;10390;53.566;9.980;2023-04-12T12:32:36;24.20;1.00
20463;DHT22;10390;53.566;9.980;2023-04-12T12:35:06;24.20;1.00
20463;DHT22;10390;53.566;9.980;2023-04-12T12:37:33;24.20;1.00
20463;DHT22;10390;53.566;9.980;2023-04-12T12:42:50;24.20;1.00
20463;DHT22;10390;53.566;9.980;2023-04-12T12:45:17;24.20;1.00
20463;DHT22;10390;53.566;9.980;2023-04-12T12:47:57;24.20;1.00
20463;DHT22;10390;53.566;9.980;2023-04-12T12:50:25;24.20;1.00
20463;DHT22;10390;53.566;9.980;2023-04-12T12:52:52;24.10;1.00
20463;DHT22;10390;53.566;9.980;2023-04-12T12:55:19;24.10;1.00
20463;DHT22;10390;53.566;9.980;2023-04-12T12:57:50;24.10;1.00
20463;DHT22;10390;53.566;9.980;2023-04-12T13:00:18;24.10;1.00
20463;DHT22;10390;53.566;9.980;2023-04-12T13:02:44;24.10;1.00
20463;DHT22;10390;53.566;9.980;2023-04-12T13:05:10;24.10;1.00
20463;DHT22;10390;53.566;9.980;2023-04-12T13:07:37;24.20;1.00
20463;DHT22;10390;53.566;9.980;2023-04-12T13:10:03;24.20;1.00
20463;DHT22;10390;53.566;9.980;2023-04-12T13:12:28;24.30;1.00
20463;DHT22;10390;53.566;9.980;2023-04-12T13:14:55;24.20;1.00
20463;DHT22;10390;53.566;9.980;2023-04-12T13:17:20;24.20;1.00
20463;DHT22;10390;53.566;9.980;2023-04-12T13:19:46;24.30;1.00
20463;DHT22;10390;53.566;9.980;2023-04-12T13:22:13;24.30;1.00
20463;DHT22;10390;53.566;9.980;2023-04-12T13:24:39;24.30;1.00
20463;DHT22;10390;53.566;9.980;2023-04-12T13:27:06;24.30;1.00
20463;DHT22;10390;53.566;9.980;2023-04-12T13:29:32;24.30;1.00
20463;DHT22;10390;53.566;9.980;2023-04-12T13:31:58;24.30;1.00
20463;DHT22;10390;53.566;9.980;2023-04-12T13:34:24;24.20;1.00
20463;DHT22;10390;53.566;9.980;2023-04-12T13:36:50;24.30;1.00
20463;DHT22;10390;53.566;9.980;2023-04-12T13:39:16;24.20;1.00
20463;DHT22;10390;53.566;9.980;2023-04-12T13:41:42;24.20;1.00
20463;DHT22;10390;53.566;9.980;2023-04-12T13:44:07;24.20;1.00
20463;DHT22;10390;53.566;9.980;2023-04-12T13:46:33;24.20;1.00
20463;DHT22;10390;53.566;9.980;2023-04-12T13:48:59;24.20;1.00
20463;DHT22;10390;53.566;9.980;2023-04-12T13:51:25;24.20;1.00
20463;DHT22;10390;53.566;9.980;2023-04-12T13:53:55;24.20;1.00
20463;DHT22;10390;53.566;9.980;2023-04-12T13:56:21;24.20;1.00
20463;DHT22;10390;53.566;9.980;2023-04-12T13:58:47;24.20;1.00
20463;DHT22;10390;53.566;9.980;2023-04-12T14:01:13;24.20;1.00
20463;DHT22;10390;53.566;9.980;2023-04-12T14:03:39;24.20;1.00
20463;DHT22;10390;53.566;9.980;2023-04-12T14:06:05;24.20;1.00
20463;DHT22;10390;53.566;9.980;2023-04-12T14:08:32;24.20;1.00
20463;DHT22;10390;53.566;9.980;2023-04-12T14:10:58;24.20;1.00
20463;DHT22;10390;53.566;9.980;2023-04-12T14:13:25;24.10;1.00
20463;DHT22;10390;53.566;9.980;2023-04-12T14:15:52;24.10;1.00
20463;DHT22;10390;53.566;9.980;2023-04-12T14:18:21;24.10;1.00
20463;DHT22;10390;53.566;9.980;2023-04-12T14:20:47;24.10;1.00
20463;DHT22;10390;53.566;9.980;2023-04-12T14:23:22;24.10;1.00
20463;DHT22;10390;53.566;9.980;2023-04-12T14:25:49;24.10;1.00
20463;DHT22;10390;53.566;9.980;2023-04-12T14:28:16;24.20;1.00
20463;DHT22;10390;53.566;9.980;2023-04-12T14:30:43;24.20;1.00
20463;DHT22;10390;53.566;9.980;2023-04-12T14:33:09;24.20;1.00
20463;DHT22;10390;53.566;9.980;2023-04-12T14:35:34;24.20;1.00
20463;DHT22;10390;53.566;9.980;2023-04-12T14:38:01;24.20;1.00
20463;DHT22;10390;53.566;9.980;2023-04-12T14:40:26;24.20;1.00
20463;DHT22;10390;53.566;9.980;2023-04-12T14:42:52;24.20;1.00
20463;DHT22;10390;53.566;9.980;2023-04-12T14:45:18;24.20;1.00
20463;DHT22;10390;53.566;9.980;2023-04-12T14:47:45;24.20;1.00
20463;DHT22;10390;53.566;9.980;2023-04-12T14:50:11;24.20;1.00
20463;DHT22;10390;53.566;9.980;2023-04-12T14:52:37;24.20;1.00
20463;DHT22;10390;53.566;9.980;2023-04-12T14:55:02;24.20;1.00
20463;DHT22;10390;53.566;9.980;2023-04-12T14:57:28;24.20;1.00
20463;DHT22;10390;53.566;9.980;2023-04-12T14:59:54;24.20;1.00
20463;DHT22;10390;53.566;9.980;2023-04-12T15:02:21;24.20;1.00
20463;DHT22;10390;53.566;9.980;2023-04-12T15:04:47;24.30;1.00
20463;DHT22;10390;53.566;9.980;2023-04-12T15:07:13;24.20;1.00
20463;DHT22;10390;53.566;9.980;2023-04-12T15:09:39;24.30;1.00
20463;DHT22;10390;53.566;9.980;2023-04-12T15:12:05;24.20;1.00
20463;DHT22;10390;53.566;9.980;2023-04-12T15:14:31;24.20;1.00
20463;DHT22;10390;53.566;9.980;2023-04-12T15:16:57;24.30;1.00
20463;DHT22;10390;53.566;9.980;2023-04-12T15:19:22;24.30;1.00
20463;DHT22;10390;53.566;9.980;2023-04-12T15:21:52;24.30;1.00
20463;DHT22;10390;53.566;9.980;2023-04-12T15:24:20;24.30;1.00
20463;DHT22;10390;53.566;9.980;2023-04-12T15:26:47;24.30;1.00
20463;DHT22;10390;53.566;9.980;2023-04-12T15:29:15;24.30;1.00
20463;DHT22;10390;53.566;9.980;2023-04-12T15:31:41;24.30;1.00
20463;DHT22;10390;53.566;9.980;2023-04-12T15:34:07;24.30;1.00
20463;DHT22;10390;53.566;9.980;2023-04-12T15:36:33;24.30;1.00
20463;DHT22;10390;53.566;9.980;2023-04-12T15:39:03;24.30;1.00
20463;DHT22;10390;53.566;9.980;2023-04-12T15:41:36;24.30;1.00
20463;DHT22;10390;53.566;9.980;2023-04-12T15:44:03;24.30;1.00
20463;DHT22;10390;53.566;9.980;2023-04-12T15:46:29;24.30;1.00
20463;DHT22;10390;53.566;9.980;2023-04-12T15:48:54;24.30;1.00
20463;DHT22;10390;53.566;9.980;2023-04-12T15:51:22;24.20;1.00
20463;DHT22;10390;53.566;9.980;2023-04-12T15:53:48;24.20;1.00
20463;DHT22;10390;53.566;9.980;2023-04-12T15:56:14;24.20;1.00
20463;DHT22;10390;53.566;9.980;2023-04-12T15:58:45;24.20;1.00
20463;DHT22;10390;53.566;9.980;2023-04-12T16:01:10;24.20;1.00
20463;DHT22;10390;53.566;9.980;2023-04-12T16:03:36;24.20;1.00
20463;DHT22;10390;53.566;9.980;2023-04-12T16:06:02;24.10;1.00
20463;DHT22;10390;53.566;9.980;2023-04-12T16:08:28;24.10;1.00
20463;DHT22;10390;53.566;9.980;2023-04-12T16:10:53;24.10;1.00
20463;DHT22;10390;53.566;9.980;2023-04-12T16:13:19;24.20;1.00